sensor_id;sensor_type;location;lat;lon;timestamp;pressure;altitude;pressure_sealevel;temperature;humidity
11487;BME280;10510;47.942;9.442;2023-09-30T00:01:13;95478.88;;;13.72;100.00
11487;BME280;10510;47.942;9.442;2023-09-30T00:03:14;95482.31;;;13.72;100.00
11487;BME280;10510;47.942;9.442;2023-09-30T00:05:15;95482.38;;;13.79;100.00
11487;BME280;10510;47.942;9.442;2023-09-30T00:07:15;95487.09;;;13.83;100.00
11487;BME280;10510;47.942;9.442;2023-09-30T00:09:15;95494.53;;;13.80;100.00
11487;BME280;10510;47.942;9.442;2023-09-30T00:11:16;95484.13;;;13.72;100.00
11487;BME280;10510;47.942;9.442;2023-09-30T00:13:17;95490.28;;;13.64;100.00
11487;BME280;10510;47.942;9.442;2023-09-30T00:15:17;95486.56;;;13.58;100.00
11487;BME280;10510;47.942;9.442;2023-09-30T00:17:18;95479.84;;;13.56;100.00
11487;BME280;10510;47.942;9.442;2023-09-30T00:19:18;95474.59;;;13.56;100.00
11487;BME280;10510;47.942;9.442;2023-09-30T00:21:18;95473.78;;;13.55;100.00
11487;BME280;10510;47.942;9.442;2023-09-30T00:23:18;95474.97;;;13.53;100.00
11487;BME280;10510;47.942;9.442;2023-09-30T00:25:21;95477.59;;;13.53;100.00
11487;BME280;10510;47.942;9.442;2023-09-30T00:27:21;95484.84;;;13.51;100.00
11487;BME280;10510;47.942;9.442;2023-09-30T00:29:22;95475.88;;;13.45;100.00
11487;BME280;10510;47.942;9.442;2023-09-30T00:31:22;95473.16;;;13.38;100.00
11487;BME280;10510;47.942;9.442;2023-09-30T00:33:22;95465.81;;;13.34;100.00
11487;BME280;10510;47.942;9.442;2023-09-30T00:35:23;95468.59;;;13.32;100.00
11487;BME280;10510;47.942;9.442;2023-09-30T00:37:23;95478.13;;;13.33;100.00
11487;BME280;10510;47.942;9.442;2023-09-30T00:39:24;95470.63;;;13.30;100.00
11487;BME280;10510;47.942;9.442;2023-09-30T00:41:27;95471.44;;;13.31;100.00
11487;BME280;10510;47.942;9.442;2023-09-30T00:43:27;95470.78;;;13.29;100.00
11487;BME280;10510;47.942;9.442;2023-09-30T00:45:28;95473.03;;;13.32;100.00
11487;BME280;10510;47.942;9.442;2023-09-30T00:47:28;95474.69;;;13.33;100.00
11487;BME280;10510;47.942;9.442;2023-09-30T00:49:29;95465.66;;;13.35;100.00
11487;BME280;10510;47.942;9.442;2023-09-30T00:51:30;95480.03;;;13.39;100.00
11487;BME280;10510;47.942;9.442;2023-09-30T00:53:31;95478.50;;;13.45;100.00
11487;BME280;10510;47.942;9.442;2023-09-30T00:55:31;95478.50;;;13.45;100.00
11487;BME280;10510;47.942;9.442;2023-09-30T00:57:31;95471.50;;;13.37;100.00
11487;BME280;10510;47.942;9.442;2023-09-30T00:59:32;95463.84;;;13.36;100.00
11487;BME280;10510;47.942;9.442;2023-09-30T01:01:32;95467.91;;;13.38;100.00
11487;BME280;10510;47.942;9.442;2023-09-30T01:03:33;95466.63;;;13.34;100.00
11487;BME280;10510;47.942;9.442;2023-09-30T01:05:34;95469.16;;;13.28;100.00
11487;BME280;10510;47.942;9.442;2023-09-30T01:07:34;95467.72;;;13.25;100.00
11487;BME280;10510;47.942;9.442;2023-09-30T01:09:35;95462.16;;;13.20;100.00
11487;BME280;10510;47.942;9.442;2023-09-30T01:11:36;95454.63;;;13.17;100.00
11487;BME280;10510;47.942;9.442;2023-09-30T01:13:37;95449.56;;;13.15;100.00
11487;BME280;10510;47.942;9.442;2023-09-30T01:15:38;95450.19;;;13.17;100.00
11487;BME280;10510;47.942;9.442;2023-09-30T01:17:38;95455.91;;;13.21;100.00
11487;BME280;10510;47.942;9.442;2023-09-30T01:19:39;95463.28;;;13.26;100.00
11487;BME280;10510;47.942;9.442;2023-09-30T01:21:40;95466.34;;;13.29;100.00
11487;BME280;10510;47.942;9.442;2023-09-30T01:23:41;95465.19;;;13.32;100.00
11487;BME280;10510;47.942;9.442;2023-09-30T01:25:43;95461.09;;;13.29;100.00
11487;BME280;10510;47.942;9.442;2023-09-30T01:27:44;95449.16;;;13.27;100.00
11487;BME280;10510;47.942;9.442;2023-09-30T01:29:44;95451.84;;;13.18;100.00
11487;BME280;10510;47.942;9.442;2023-09-30T01:31:44;95455.19;;;13.12;100.00
11487;BME280;10510;47.942;9.442;2023-09-30T01:33:47;95457.53;;;13.07;100.00
11487;BME280;10510;47.942;9.442;2023-09-30T01:35:48;95458.88;;;13.03;100.00
11487;BME280;10510;47.942;9.442;2023-09-30T01:37:48;95454.59;;;13.02;100.00
11487;BME280;10510;47.942;9.442;2023-09-30T01:39:48;95454.97;;;12.99;100.00
11487;BME280;10510;47.942;9.442;2023-09-30T01:41:50;95455.16;;;12.98;100.00
11487;BME280;10510;47.942;9.442;2023-09-30T01:43:50;95463.19;;;12.96;100.00
11487;BME280;10510;47.942;9.442;2023-09-30T01:45:51;95461.22;;;12.98;100.00
11487;BME280;10510;47.942;9.442;2023-09-30T01:47:51;95460.06;;;13.01;100.00
11487;BME280;10510;47.942;9.442;2023-09-30T01:49:51;95461.50;;;13.03;100.00
11487;BME280;10510;47.942;9.442;2023-09-30T01:51:51;95460.97;;;13.08;100.00
11487;BME280;10510;47.942;9.442;2023-09-30T01:53:52;95454.38;;;13.12;100.00
11487;BME280;10510;47.942;9.442;2023-09-30T01:55:52;95455.81;;;13.14;100.00
11487;BME280;10510;47.942;9.442;2023-09-30T01:57:52;95461.53;;;13.18;100.00
11487;BME280;10510;47.942;9.442;2023-09-30T01:59:52;95450.03;;;13.19;100.00
11487;BME280;10510;47.942;9.442;2023-09-30T02:01:53;95455.06;;;13.21;100.00
11487;BME280;10510;47.942;9.442;2023-09-30T02:03:53;95449.50;;;13.24;100.00
11487;BME280;10510;47.942;9.442;2023-09-30T02:05:53;95451.59;;;13.28;100.00
11487;BME280;10510;47.942;9.442;2023-09-30T02:07:54;95450.44;;;13.31;100.00
11487;BME280;10510;47.942;9.442;2023-09-30T02:09:54;95455.47;;;13.32;100.00
11487;BME280;10510;47.942;9.442;2023-09-30T02:11:55;95449.78;;;13.29;100.00
11487;BME280;10510;47.942;9.442;2023-09-30T02:13:55;95453.09;;;13.23;100.00
11487;BME280;10510;47.942;9.442;2023-09-30T02:15:56;95455.81;;;13.14;100.00
11487;BME280;10510;47.942;9.442;2023-09-30T02:17:56;95453.53;;;13.11;100.00
11487;BME280;10510;47.942;9.442;2023-09-30T02:19:56;95445.50;;;13.13;100.00
11487;BME280;10510;47.942;9.442;2023-09-30T02:21:57;95446.75;;;13.17;100.00
11487;BME280;10510;47.942;9.442;2023-09-30T02:23:57;95445.22;;;13.23;100.00
11487;BME280;10510;47.942;9.442;2023-09-30T02:25:57;95443.56;;;13.30;100.00
11487;BME280;10510;47.942;9.442;2023-09-30T02:27:58;95445.47;;;13.36;100.00
11487;BME280;10510;47.942;9.442;2023-09-30T02:29:58;95441.47;;;13.40;100.00
11487;BME280;10510;47.942;9.442;2023-09-30T02:31:58;95436.56;;;13.37;100.00
11487;BME280;10510;47.942;9.442;2023-09-30T02:33:58;95435.31;;;13.33;100.00
11487;BME280;10510;47.942;9.442;2023-09-30T02:35:59;95434.16;;;13.35;100.00
11487;BME280;10510;47.942;9.442;2023-09-30T02:37:59;95440.47;;;13.41;100.00
11487;BME280;10510;47.942;9.442;2023-09-30T02:40:01;95451.59;;;13.43;100.00
11487;BME280;10510;47.942;9.442;2023-09-30T02:42:04;95450.00;;;13.42;100.00
11487;BME280;10510;47.942;9.442;2023-09-30T02:44:04;95444.66;;;13.35;100.00
11487;BME280;10510;47.942;9.442;2023-09-30T02:46:05;95452.78;;;13.26;100.00
11487;BME280;10510;47.942;9.442;2023-09-30T02:48:05;95455.44;;;13.17;100.00
11487;BME280;10510;47.942;9.442;2023-09-30T02:50:08;95448.94;;;13.13;100.00
11487;BME280;10510;47.942;9.442;2023-09-30T02:52:08;95446.31;;;13.13;100.00
11487;BME280;10510;47.942;9.442;2023-09-30T02:54:08;95454.00;;;13.15;100.00
11487;BME280;10510;47.942;9.442;2023-09-30T02:56:09;95451.56;;;13.13;100.00
11487;BME280;10510;47.942;9.442;2023-09-30T02:58:10;95452.19;;;13.15;100.00
11487;BME280;10510;47.942;9.442;2023-09-30T03:00:10;95443.31;;;13.16;100.00
11487;BME280;10510;47.942;9.442;2023-09-30T03:02:23;95454.28;;;13.20;100.00
11487;BME280;10510;47.942;9.442;2023-09-30T03:04:23;95445.22;;;13.23;100.00
11487;BME280;10510;47.942;9.442;2023-09-30T03:06:26;95445.22;;;13.23;100.00
11487;BME280;10510;47.942;9.442;2023-09-30T03:08:26;95449.16;;;13.27;100.00
11487;BME280;10510;47.942;9.442;2023-09-30T03:10:26;95444.38;;;13.30;100.00
11487;BME280;10510;47.942;9.442;2023-09-30T03:12:27;95443.00;;;13.34;100.00
11487;BME280;10510;47.942;9.442;2023-09-30T03:14:27;95447.09;;;13.37;100.00
11487;BME280;10510;47.942;9.442;2023-09-30T03:16:30;95445.47;;;13.36;100.00
11487;BME280;10510;47.942;9.442;2023-09-30T03:18:31;95446.63;;;13.33;100.00
11487;BME280;10510;47.942;9.442;2023-09-30T03:20:31;95444.16;;;13.32;100.00
11487;BME280;10510;47.942;9.442;2023-09-30T03:22:31;95446.78;;;13.32;100.00
11487;BME280;10510;47.942;9.442;2023-09-30T03:24:32;95446.63;;;13.33;100.00
11487;BME280;10510;47.942;9.442;2023-09-30T03:26:32;95444.47;;;13.37;100.00
11487;BME280;10510;47.942;9.442;2023-09-30T03:28:33;95455.41;;;13.40;100.00
11487;BME280;10510;47.942;9.442;2023-09-30T03:30:33;95454.59;;;13.40;100.00
11487;BME280;10510;47.942;9.442;2023-09-30T03:32:35;95456.94;;;13.35;100.00
11487;BME280;10510;47.942;9.442;2023-09-30T03:34:38;95454.88;;;13.30;100.00
11487;BME280;10510;47.942;9.442;2023-09-30T03:36:40;95456.38;;;13.25;100.00
11487;BME280;10510;47.942;9.442;2023-09-30T03:38:41;95448.84;;;13.22;100.00
11487;BME280;10510;47.942;9.442;2023-09-30T03:40:41;95452.44;;;13.21;100.00
11487;BME280;10510;47.942;9.442;2023-09-30T03:42:48;95458.72;;;13.19;100.00
11487;BME280;10510;47.942;9.442;2023-09-30T03:44:51;95457.09;;;13.18;100.00
11487;BME280;10510;47.942;9.442;2023-09-30T03:46:51;95462.69;;;13.15;100.00
11487;BME280;10510;47.942;9.442;2023-09-30T03:48:52;95452.72;;;13.11;100.00
11487;BME280;10510;47.942;9.442;2023-09-30T03:50:52;95452.09;;;13.09;100.00
11487;BME280;10510;47.942;9.442;2023-09-30T03:53:01;95448.84;;;13.07;100.00
11487;BME280;10510;47.942;9.442;2023-09-30T03:55:01;95440.97;;;13.07;100.00
11487;BME280;10510;47.942;9.442;2023-09-30T03:57:04;95456.06;;;13.05;100.00
11487;BME280;10510;47.942;9.442;2023-09-30T03:59:05;95460.84;;;13.01;100.00
11487;BME280;10510;47.942;9.442;2023-09-30T04:01:05;95457.78;;;12.98;100.00
11487;BME280;10510;47.942;9.442;2023-09-30T04:03:06;95467.63;;;12.95;100.00
11487;BME280;10510;47.942;9.442;2023-09-30T04:05:06;95462.38;;;12.95;100.00
11487;BME280;10510;47.942;9.442;2023-09-30T04:07:07;95451.44;;;12.92;100.00
11487;BME280;10510;47.942;9.442;2023-09-30T04:09:10;95451.25;;;12.93;100.00
11487;BME280;10510;47.942;9.442;2023-09-30T04:11:10;95452.25;;;12.92;100.00
11487;BME280;10510;47.942;9.442;2023-09-30T04:13:14;95450.44;;;12.93;100.00
11487;BME280;10510;47.942;9.442;2023-09-30T04:15:15;95450.44;;;12.93;100.00
11487;BME280;10510;47.942;9.442;2023-09-30T04:17:15;95443.22;;;12.95;100.00
11487;BME280;10510;47.942;9.442;2023-09-30T04:19:16;95433.38;;;12.97;100.00
11487;BME280;10510;47.942;9.442;2023-09-30T04:21:16;95436.59;;;12.99;100.00
11487;BME280;10510;47.942;9.442;2023-09-30T04:23:16;95440.88;;;13.00;100.00
11487;BME280;10510;47.942;9.442;2023-09-30T04:25:17;95432.16;;;13.00;100.00
11487;BME280;10510;47.942;9.442;2023-09-30T04:27:18;95429.53;;;13.00;100.00
11487;BME280;10510;47.942;9.442;2023-09-30T04:29:18;95427.28;;;12.96;100.00
11487;BME280;10510;47.942;9.442;2023-09-30T04:31:19;95431.72;;;12.96;100.00
11487;BME280;10510;47.942;9.442;2023-09-30T04:33:21;95426.47;;;12.96;100.00
11487;BME280;10510;47.942;9.442;2023-09-30T04:35:24;95430.09;;;12.95;100.00
11487;BME280;10510;47.942;9.442;2023-09-30T04:37:26;95438.59;;;12.97;100.00
11487;BME280;10510;47.942;9.442;2023-09-30T04:39:26;95435.78;;;12.99;100.00
11487;BME280;10510;47.942;9.442;2023-09-30T04:41:27;95439.88;;;13.01;100.00
11487;BME280;10510;47.942;9.442;2023-09-30T04:43:28;95432.66;;;13.03;100.00
11487;BME280;10510;47.942;9.442;2023-09-30T04:45:29;95444.75;;;13.04;100.00
11487;BME280;10510;47.942;9.442;2023-09-30T04:47:29;95447.38;;;13.04;100.00
11487;BME280;10510;47.942;9.442;2023-09-30T04:49:29;95454.00;;;13.00;100.00
11487;BME280;10510;47.942;9.442;2023-09-30T04:51:30;95452.69;;;12.96;100.00
11487;BME280;10510;47.942;9.442;2023-09-30T04:53:33;95448.63;;;12.93;100.00
11487;BME280;10510;47.942;9.442;2023-09-30T04:55:34;95451.88;;;12.95;100.00
11487;BME280;10510;47.942;9.442;2023-09-30T04:57:34;95451.72;;;12.97;100.00
11487;BME280;10510;47.942;9.442;2023-09-30T04:59:34;95461.56;;;12.95;100.00
11487;BME280;10510;47.942;9.442;2023-09-30T05:01:35;95455.03;;;12.91;100.00
11487;BME280;10510;47.942;9.442;2023-09-30T05:03:35;95444.53;;;12.91;100.00
11487;BME280;10510;47.942;9.442;2023-09-30T05:05:35;95452.59;;;12.89;100.00
11487;BME280;10510;47.942;9.442;2023-09-30T05:07:35;95461.47;;;12.88;100.00
11487;BME280;10510;47.942;9.442;2023-09-30T05:09:36;95463.44;;;12.86;100.00
11487;BME280;10510;47.942;9.442;2023-09-30T05:11:36;95470.69;;;12.84;100.00
11487;BME280;10510;47.942;9.442;2023-09-30T05:13:37;95472.03;;;12.80;100.00
11487;BME280;10510;47.942;9.442;2023-09-30T05:15:37;95476.28;;;12.81;100.00
11487;BME280;10510;47.942;9.442;2023-09-30T05:17:37;95493.31;;;12.85;100.00
11487;BME280;10510;47.942;9.442;2023-09-30T05:19:38;95492.97;;;12.88;100.00
11487;BME280;10510;47.942;9.442;2023-09-30T05:21:38;95490.78;;;12.92;100.00
11487;BME280;10510;47.942;9.442;2023-09-30T05:23:38;95489.44;;;12.96;100.00
11487;BME280;10510;47.942;9.442;2023-09-30T05:25:39;95488.09;;;13.00;100.00
11487;BME280;10510;47.942;9.442;2023-09-30T05:27:39;95475.88;;;13.07;100.00
11487;BME280;10510;47.942;9.442;2023-09-30T05:29:40;95482.69;;;13.16;100.00
11487;BME280;10510;47.942;9.442;2023-09-30T05:31:40;95475.41;;;13.27;100.00
11487;BME280;10510;47.942;9.442;2023-09-30T05:33:40;95480.41;;;13.36;100.00
11487;BME280;10510;47.942;9.442;2023-09-30T05:35:41;95470.63;;;13.45;100.00
11487;BME280;10510;47.942;9.442;2023-09-30T05:37:42;95477.41;;;13.54;100.00
11487;BME280;10510;47.942;9.442;2023-09-30T05:39:43;95473.06;;;13.61;100.00
11487;BME280;10510;47.942;9.442;2023-09-30T05:41:44;95481.03;;;13.68;100.00
11487;BME280;10510;47.942;9.442;2023-09-30T05:43:44;95474.25;;;13.74;100.00
11487;BME280;10510;47.942;9.442;2023-09-30T05:45:45;95486.81;;;13.78;100.00
11487;BME280;10510;47.942;9.442;2023-09-30T05:47:50;95489.53;;;13.85;100.00
11487;BME280;10510;47.942;9.442;2023-09-30T05:49:52;95491.97;;;13.86;100.00
11487;BME280;10510;47.942;9.442;2023-09-30T05:51:52;95487.91;;;13.84;100.00
11487;BME280;10510;47.942;9.442;2023-09-30T05:53:53;95496.00;;;13.82;100.00
11487;BME280;10510;47.942;9.442;2023-09-30T05:55:54;95494.34;;;13.81;100.00
11487;BME280;10510;47.942;9.442;2023-09-30T05:57:55;95489.09;;;13.81;100.00
11487;BME280;10510;47.942;9.442;2023-09-30T05:59:55;95487.47;;;13.80;100.00
11487;BME280;10510;47.942;9.442;2023-09-30T06:01:55;95488.28;;;13.81;100.00
11487;BME280;10510;47.942;9.442;2023-09-30T06:03:56;95500.41;;;13.82;100.00
11487;BME280;10510;47.942;9.442;2023-09-30T06:05:58;95503.31;;;13.87;100.00
11487;BME280;10510;47.942;9.442;2023-09-30T06:08:02;95499.88;;;13.86;100.00
11487;BME280;10510;47.942;9.442;2023-09-30T06:10:04;95507.47;;;13.81;100.00
11487;BME280;10510;47.942;9.442;2023-09-30T06:12:06;95510.91;;;13.82;100.00
11487;BME280;10510;47.942;9.442;2023-09-30T06:14:06;95507.56;;;13.88;100.00
11487;BME280;10510;47.942;9.442;2023-09-30T06:16:06;95507.03;;;13.93;100.00
11487;BME280;10510;47.942;9.442;2023-09-30T06:18:07;95502.84;;;13.98;100.00
11487;BME280;10510;47.942;9.442;2023-09-30T06:20:08;95511.81;;;14.04;100.00
11487;BME280;10510;47.942;9.442;2023-09-30T06:22:16;95512.63;;;14.04;100.00
11487;BME280;10510;47.942;9.442;2023-09-30T06:24:16;95517.25;;;14.02;100.00
11487;BME280;10510;47.942;9.442;2023-09-30T06:26:16;95506.47;;;13.97;100.00
11487;BME280;10510;47.942;9.442;2023-09-30T06:28:17;95500.50;;;13.89;100.00
11487;BME280;10510;47.942;9.442;2023-09-30T06:30:18;95506.94;;;13.86;100.00
11487;BME280;10510;47.942;9.442;2023-09-30T06:32:21;95510.19;;;13.88;100.00
11487;BME280;10510;47.942;9.442;2023-09-30T06:34:21;95508.84;;;13.92;100.00
11487;BME280;10510;47.942;9.442;2023-09-30T06:36:22;95503.22;;;13.95;100.00
11487;BME280;10510;47.942;9.442;2023-09-30T06:38:23;95504.84;;;13.96;100.00
11487;BME280;10510;47.942;9.442;2023-09-30T06:40:23;95498.69;;;14.04;100.00
11487;BME280;10510;47.942;9.442;2023-09-30T06:42:26;95494.75;;;14.15;100.00
11487;BME280;10510;47.942;9.442;2023-09-30T06:44:27;95501.41;;;14.32;100.00
11487;BME280;10510;47.942;9.442;2023-09-30T06:46:28;95497.75;;;14.48;100.00
11487;BME280;10510;47.942;9.442;2023-09-30T06:48:29;95507.19;;;14.57;100.00
11487;BME280;10510;47.942;9.442;2023-09-30T06:50:29;95512.25;;;14.59;100.00
11487;BME280;10510;47.942;9.442;2023-09-30T06:52:31;95518.41;;;14.66;100.00
11487;BME280;10510;47.942;9.442;2023-09-30T06:54:32;95528.88;;;14.81;100.00
11487;BME280;10510;47.942;9.442;2023-09-30T06:56:32;95533.06;;;14.96;100.00
11487;BME280;10510;47.942;9.442;2023-09-30T06:58:32;95534.00;;;15.10;100.00
11487;BME280;10510;47.942;9.442;2023-09-30T07:00:33;95533.66;;;15.20;100.00
11487;BME280;10510;47.942;9.442;2023-09-30T07:02:38;95531.78;;;15.35;100.00
11487;BME280;10510;47.942;9.442;2023-09-30T07:04:39;95541.84;;;15.53;100.00
11487;BME280;10510;47.942;9.442;2023-09-30T07:06:39;95546.69;;;15.78;100.00
11487;BME280;10510;47.942;9.442;2023-09-30T07:08:39;95546.09;;;15.82;100.00
11487;BME280;10510;47.942;9.442;2023-09-30T07:10:39;95546.66;;;15.71;100.00
11487;BME280;10510;47.942;9.442;2023-09-30T07:12:40;95546.75;;;15.63;100.00
11487;BME280;10510;47.942;9.442;2023-09-30T07:14:40;95549.66;;;15.68;100.00
11487;BME280;10510;47.942;9.442;2023-09-30T07:16:40;95551.53;;;15.74;100.00
11487;BME280;10510;47.942;9.442;2023-09-30T07:18:41;95554.72;;;15.70;100.00
11487;BME280;10510;47.942;9.442;2023-09-30T07:20:41;95566.72;;;15.72;100.00
11487;BME280;10510;47.942;9.442;2023-09-30T07:22:41;95567.09;;;15.69;100.00
11487;BME280;10510;47.942;9.442;2023-09-30T07:24:41;95567.28;;;15.67;100.00
11487;BME280;10510;47.942;9.442;2023-09-30T07:26:42;95576.03;;;15.68;100.00
11487;BME280;10510;47.942;9.442;2023-09-30T07:28:42;95579.06;;;15.72;100.00
11487;BME280;10510;47.942;9.442;2023-09-30T07:30:43;95577.88;;;15.74;100.00
11487;BME280;10510;47.942;9.442;2023-09-30T07:32:45;95581.06;;;15.98;100.00
11487;BME280;10510;47.942;9.442;2023-09-30T07:34:47;95581.91;;;16.05;100.00
11487;BME280;10510;47.942;9.442;2023-09-30T07:36:48;95585.41;;;16.12;100.00
11487;BME280;10510;47.942;9.442;2023-09-30T07:38:48;95580.53;;;16.09;100.00
11487;BME280;10510;47.942;9.442;2023-09-30T07:40:48;95587.19;;;16.05;100.00
11487;BME280;10510;47.942;9.442;2023-09-30T07:42:49;95589.41;;;16.01;100.00
11487;BME280;10510;47.942;9.442;2023-09-30T07:44:50;95586.72;;;15.95;100.00
11487;BME280;10510;47.942;9.442;2023-09-30T07:46:50;95588.75;;;15.93;100.00
11487;BME280;10510;47.942;9.442;2023-09-30T07:48:50;95582.25;;;15.88;100.00
11487;BME280;10510;47.942;9.442;2023-09-30T07:50:51;95590.75;;;15.90;100.00
11487;BME280;10510;47.942;9.442;2023-09-30T07:52:51;95580.19;;;15.90;100.00
11487;BME280;10510;47.942;9.442;2023-09-30T07:54:51;95572.78;;;16.01;100.00
11487;BME280;10510;47.942;9.442;2023-09-30T07:56:51;95577.94;;;16.16;100.00
11487;BME280;10510;47.942;9.442;2023-09-30T07:58:52;95574.91;;;16.25;100.00
11487;BME280;10510;47.942;9.442;2023-09-30T08:00:52;95575.66;;;16.47;100.00
11487;BME280;10510;47.942;9.442;2023-09-30T08:02:53;95579.81;;;16.76;100.00
11487;BME280;10510;47.942;9.442;2023-09-30T08:04:53;95570.38;;;17.22;100.00
11487;BME280;10510;47.942;9.442;2023-09-30T08:06:54;95574.03;;;17.21;100.00
11487;BME280;10510;47.942;9.442;2023-09-30T08:08:54;95568.94;;;17.46;100.00
11487;BME280;10510;47.942;9.442;2023-09-30T08:10:55;95579.53;;;17.79;100.00
11487;BME280;10510;47.942;9.442;2023-09-30T08:12:56;95590.00;;;18.26;100.00
11487;BME280;10510;47.942;9.442;2023-09-30T08:14:58;95594.19;;;17.88;100.00
11487;BME280;10510;47.942;9.442;2023-09-30T08:16:58;95591.53;;;17.62;100.00
11487;BME280;10510;47.942;9.442;2023-09-30T08:18:58;95579.09;;;17.49;100.00
11487;BME280;10510;47.942;9.442;2023-09-30T08:20:59;95581.13;;;17.40;100.00
11487;BME280;10510;47.942;9.442;2023-09-30T08:22:59;95584.41;;;17.42;100.00
11487;BME280;10510;47.942;9.442;2023-09-30T08:24:59;95595.38;;;17.39;100.00
11487;BME280;10510;47.942;9.442;2023-09-30T08:27:00;95601.03;;;17.23;100.00
11487;BME280;10510;47.942;9.442;2023-09-30T08:29:01;95603.25;;;17.06;100.00
11487;BME280;10510;47.942;9.442;2023-09-30T08:31:05;95604.63;;;16.89;100.00
11487;BME280;10510;47.942;9.442;2023-09-30T08:33:05;95599.75;;;16.86;100.00
11487;BME280;10510;47.942;9.442;2023-09-30T08:35:07;95603.22;;;16.99;100.00
11487;BME280;10510;47.942;9.442;2023-09-30T08:37:09;95597.19;;;17.25;100.00
11487;BME280;10510;47.942;9.442;2023-09-30T08:39:10;95597.41;;;17.64;100.00
11487;BME280;10510;47.942;9.442;2023-09-30T08:41:24;95594.78;;;18.55;100.00
11487;BME280;10510;47.942;9.442;2023-09-30T08:43:25;95594.03;;;18.93;100.00
11487;BME280;10510;47.942;9.442;2023-09-30T08:45:33;95592.59;;;19.29;100.00
11487;BME280;10510;47.942;9.442;2023-09-30T08:47:33;95577.53;;;19.55;100.00
11487;BME280;10510;47.942;9.442;2023-09-30T08:49:38;95566.38;;;19.78;100.00
11487;BME280;10510;47.942;9.442;2023-09-30T08:51:40;95571.34;;;20.66;100.00
11487;BME280;10510;47.942;9.442;2023-09-30T08:53:41;95580.78;;;20.80;100.00
11487;BME280;10510;47.942;9.442;2023-09-30T08:55:44;95569.78;;;21.07;100.00
11487;BME280;10510;47.942;9.442;2023-09-30T08:57:46;95564.50;;;21.61;100.00
11487;BME280;10510;47.942;9.442;2023-09-30T08:59:46;95568.22;;;22.07;100.00
11487;BME280;10510;47.942;9.442;2023-09-30T09:01:49;95572.97;;;22.28;100.00
11487;BME280;10510;47.942;9.442;2023-09-30T09:03:49;95571.06;;;22.93;100.00
11487;BME280;10510;47.942;9.442;2023-09-30T09:05:56;95578.84;;;23.40;100.00
11487;BME280;10510;47.942;9.442;2023-09-30T09:07:56;95596.03;;;23.32;100.00
11487;BME280;10510;47.942;9.442;2023-09-30T09:10:07;95596.16;;;23.08;100.00
11487;BME280;10510;47.942;9.442;2023-09-30T09:12:19;95589.97;;;22.04;100.00
11487;BME280;10510;47.942;9.442;2023-09-30T09:14:36;95588.78;;;21.22;100.00
11487;BME280;10510;47.942;9.442;2023-09-30T09:16:36;95579.53;;;20.64;100.00
11487;BME280;10510;47.942;9.442;2023-09-30T09:18:37;95579.91;;;20.13;100.00
11487;BME280;10510;47.942;9.442;2023-09-30T09:20:37;95581.75;;;20.12;100.00
11487;BME280;10510;47.942;9.442;2023-09-30T09:22:41;95586.88;;;20.07;100.00
11487;BME280;10510;47.942;9.442;2023-09-30T09:24:42;95578.84;;;19.95;100.00
11487;BME280;10510;47.942;9.442;2023-09-30T09:26:43;95570.53;;;19.92;100.00
11487;BME280;10510;47.942;9.442;2023-09-30T09:28:43;95567.34;;;20.75;100.00
11487;BME280;10510;47.942;9.442;2023-09-30T09:30:43;95564.41;;;21.25;100.00
11487;BME280;10510;47.942;9.442;2023-09-30T09:35:01;95554.00;;;21.77;100.00
11487;BME280;10510;47.942;9.442;2023-09-30T09:37:14;95562.19;;;21.88;100.00
11487;BME280;10510;47.942;9.442;2023-09-30T09:39:15;95551.47;;;21.83;100.00
11487;BME280;10510;47.942;9.442;2023-09-30T09:41:16;95551.56;;;21.76;100.00
11487;BME280;10510;47.942;9.442;2023-09-30T09:43:17;95554.81;;;21.78;100.00
11487;BME280;10510;47.942;9.442;2023-09-30T09:45:18;95555.38;;;21.92;100.00
11487;BME280;10510;47.942;9.442;2023-09-30T09:47:19;95567.63;;;21.93;100.00
11487;BME280;10510;47.942;9.442;2023-09-30T09:49:21;95558.50;;;22.12;100.00
11487;BME280;10510;47.942;9.442;2023-09-30T09:51:22;95561.50;;;22.04;100.00
11487;BME280;10510;47.942;9.442;2023-09-30T09:53:24;95567.63;;;21.81;100.00
11487;BME280;10510;47.942;9.442;2023-09-30T09:55:25;95572.47;;;21.49;100.00
11487;BME280;10510;47.942;9.442;2023-09-30T09:57:27;95574.19;;;21.43;100.00
11487;BME280;10510;47.942;9.442;2023-09-30T09:59:30;95565.56;;;21.29;100.00
11487;BME280;10510;47.942;9.442;2023-09-30T10:01:30;95556.69;;;21.36;100.00
11487;BME280;10510;47.942;9.442;2023-09-30T10:03:31;95562.88;;;21.48;100.00
11487;BME280;10510;47.942;9.442;2023-09-30T10:05:31;95563.66;;;21.37;100.00
11487;BME280;10510;47.942;9.442;2023-09-30T10:07:39;95566.31;;;21.37;100.00
11487;BME280;10510;47.942;9.442;2023-09-30T10:09:40;95564.41;;;21.25;100.00
11487;BME280;10510;47.942;9.442;2023-09-30T10:11:41;95568.22;;;20.87;100.00
11487;BME280;10510;47.942;9.442;2023-09-30T10:13:55;95555.28;;;20.61;100.00
11487;BME280;10510;47.942;9.442;2023-09-30T10:15:55;95554.63;;;20.47;100.00
11487;BME280;10510;47.942;9.442;2023-09-30T10:18:12;95551.81;;;20.91;100.00
11487;BME280;10510;47.942;9.442;2023-09-30T10:20:12;95560.69;;;21.57;100.00
11487;BME280;10510;47.942;9.442;2023-09-30T10:26:23;95547.09;;;22.52;100.00
11487;BME280;10510;47.942;9.442;2023-09-30T10:28:40;95539.72;;;22.42;100.00
11487;BME280;10510;47.942;9.442;2023-09-30T10:31:07;95537.28;;;22.41;100.00
11487;BME280;10510;47.942;9.442;2023-09-30T10:33:08;95541.00;;;22.40;100.00
11487;BME280;10510;47.942;9.442;2023-09-30T10:35:09;95548.31;;;22.33;100.00
11487;BME280;10510;47.942;9.442;2023-09-30T10:37:22;95545.31;;;22.17;100.00
11487;BME280;10510;47.942;9.442;2023-09-30T10:41:58;95543.28;;;22.48;100.00
11487;BME280;10510;47.942;9.442;2023-09-30T10:50:52;95525.09;;;23.14;100.00